Pagina principale
METAR-TAF:

METAR-TAF

Aeroporti :

Aeroporto di Parma

Parma, Italia

latitudine: 44-49-17N, longitudine: 010-17-41E, altezza: 50 m

Osservazione

Il bollettino è stato emesso 6 ore e 21 minuti fa, alle 21:50 UTC
Vento 3 kt da ovest/sud-ovest, variando fra sud/sud-ovest e ovest
Temperature 8°C
Umidità 81%
Pressione 1024 hPa
Visibilità: 5000 m
foschia

METAR: LIMP 262150Z 24003KT 200V260 5000 BR NSC 08/05 Q1024

Ora: 05:11 (04:11 UTC)

Previsione

Il bollettino è stato emesso 11 ore e 11 minuti fa, alle 17:00 UTC
Previsione valida dal 26 alle 18 UTC al 27 alle 18 UTC
Vento 5 kt da direzioni variabili
Visibilità 10 km o più
nessuna nube inferiore a 1500 m e nessun cumulonembo

TAF: LIMP 261700Z 2618/2718 VRB05KT CAVOK

Osservazioni e previsioni meteorologiche di più di 4000 aeroporti (messaggi METAR e TAF).

Le stazioni disponibili sono rappresentate dai dischi gialli e rossi sulla carta.

Puntare il mouse per vedere il nome della stazione.

Clicca sopra per visualizzare le osservazioni e previsioni meteorologiche.

Per cambiare la mappa : fare clic sui pulsanti verdi con una croce nera per ingrandire, il pulsante verde con un trattino per diminuire, o sulla freccia verde per le mappe adiacenti.


METAR-TAF: